Time;durP1;ratioP1;P1;durP2;ratioP2;P2;SDS_P1;SDS_P2;PMS_P1;PMS_P2;Temp;Humidity;BMP_temperature;BMP_pressure;BME280_temperature;BME280_humidity;BME280_pressure;Samples;Min_cycle;Max_cycle;Signal;HPM_P1;HPM_P2
2021/04/19 00:01:39;;;;;;;9.77;1.20;;;31.90;7.20;;;;;;5032587;28;20066;-61
2021/04/19 00:04:05;;;;;;;5.72;1.20;;;31.80;6.70;;;;;;5032806;28;20090;-61
2021/04/19 00:06:32;;;;;;;10.32;2.05;;;31.70;6.70;;;;;;5033115;28;20085;-59
2021/04/19 00:08:58;;;;;;;13.38;1.75;;;31.70;6.90;;;;;;5032838;28;20446;-61
2021/04/19 00:11:25;;;;;;;16.92;1.80;;;31.80;7.00;;;;;;5032730;28;20078;-60
2021/04/19 00:13:51;;;;;;;8.82;1.95;;;31.90;7.20;;;;;;5031520;28;20486;-60
2021/04/19 00:16:18;;;;;;;8.77;1.23;;;31.80;7.10;;;;;;5032240;28;20082;-62
2021/04/19 00:18:44;;;;;;;8.35;1.63;;;31.70;7.50;;;;;;5032974;28;20115;-58
2021/04/19 00:21:11;;;;;;;4.13;1.48;;;31.50;7.50;;;;;;5032091;28;20571;-61
2021/04/19 00:23:38;;;;;;;6.18;1.25;;;31.50;7.30;;;;;;5031361;28;20092;-61
2021/04/19 00:26:04;;;;;;;6.78;1.58;;;31.40;7.00;;;;;;5032430;28;20523;-59
2021/04/19 00:28:31;;;;;;;4.28;1.10;;;31.30;7.40;;;;;;5031013;28;20424;-57
2021/04/19 00:30:58;;;;;;;7.05;1.50;;;31.30;7.90;;;;;;5031454;28;20101;-59
2021/04/19 00:33:25;;;;;;;7.55;1.50;;;31.30;8.10;;;;;;5030238;28;20070;-60
2021/04/19 00:35:51;;;;;;;12.68;1.90;;;31.20;8.40;;;;;;5029356;28;20085;-60
2021/04/19 00:38:18;;;;;;;10.07;1.88;;;31.20;8.00;;;;;;5031024;28;20092;-60
2021/04/19 00:40:45;;;;;;;13.43;1.63;;;31.20;8.50;;;;;;5032313;28;20074;-60
2021/04/19 00:43:12;;;;;;;13.70;1.35;;;31.20;9.00;;;;;;5031038;28;20082;-60
2021/04/19 00:45:39;;;;;;;9.65;1.20;;;31.10;8.10;;;;;;5032004;28;20156;-60
2021/04/19 00:48:06;;;;;;;5.80;1.38;;;31.00;8.60;;;;;;5032617;28;20082;-61
2021/04/19 00:50:34;;;;;;;3.40;1.08;;;31.00;8.30;;;;;;5030135;28;20184;-59
2021/04/19 00:53:02;;;;;;;9.88;1.80;;;31.10;8.50;;;;;;5031811;28;20070;-62
2021/04/19 00:55:29;;;;;;;5.05;1.40;;;31.20;8.80;;;;;;5029850;28;20092;-61
2021/04/19 00:57:56;;;;;;;8.60;1.60;;;31.10;8.70;;;;;;5030438;28;20070;-62
2021/04/19 01:00:31;;;;;;;8.07;2.03;;;31.00;8.70;;;;;;5029192;28;20118;-61
2021/04/19 01:02:59;;;;;;;9.85;1.27;;;31.00;8.80;;;;;;5046793;28;20069;-58
2021/04/19 01:05:32;;;;;;;7.35;1.60;;;30.90;8.60;;;;;;5032105;28;20082;-60
2021/04/19 01:07:59;;;;;;;5.10;1.80;;;30.80;8.50;;;;;;5029828;28;20119;-61
2021/04/19 01:10:25;;;;;;;11.05;2.45;;;30.70;9.10;;;;;;5029667;28;20576;-57
2021/04/19 01:12:52;;;;;;;14.57;2.20;;;30.70;8.60;;;;;;5030667;28;20213;-56
2021/04/19 01:15:19;;;;;;;9.82;1.38;;;30.50;8.50;;;;;;5031094;28;20093;-55
2021/04/19 01:17:47;;;;;;;10.63;2.03;;;30.40;8.50;;;;;;5029659;28;20080;-59
2021/04/19 01:20:19;;;;;;;14.68;1.52;;;30.40;8.80;;;;;;5028639;28;20077;-56
2021/04/19 01:22:46;;;;;;;10.02;2.30;;;30.40;9.00;;;;;;5030460;28;20217;-58
2021/04/19 01:25:17;;;;;;;10.68;2.15;;;30.30;9.20;;;;;;5031352;28;20070;-60
2021/04/19 01:27:43;;;;;;;13.55;2.10;;;30.20;9.50;;;;;;5030524;28;20085;-60
2021/04/19 01:30:10;;;;;;;13.05;1.65;;;30.10;9.60;;;;;;5030687;28;20439;-62
2021/04/19 01:32:37;;;;;;;16.70;1.95;;;30.00;9.70;;;;;;5030831;28;20066;-58
2021/04/19 01:35:05;;;;;;;8.95;1.85;;;29.90;9.90;;;;;;5031387;28;20078;-58
2021/04/19 01:37:32;;;;;;;15.90;1.90;;;29.80;10.10;;;;;;5030572;28;20078;-58
2021/04/19 01:39:58;;;;;;;11.57;2.60;;;29.60;10.40;;;;;;5029969;28;20443;-63
2021/04/19 01:42:26;;;;;;;14.55;3.72;;;29.60;10.90;;;;;;5029674;28;20098;-60
2021/04/19 01:44:52;;;;;;;10.07;2.78;;;29.40;10.90;;;;;;5030401;28;20523;-57
2021/04/19 01:47:19;;;;;;;10.27;3.03;;;29.40;11.20;;;;;;5030910;28;20416;-58
2021/04/19 01:49:45;;;;;;;14.73;2.28;;;29.30;11.50;;;;;;5029253;28;20093;-59
2021/04/19 01:52:12;;;;;;;14.75;2.58;;;29.10;11.40;;;;;;5031583;28;20096;-60
2021/04/19 01:54:38;;;;;;;12.55;2.42;;;28.90;11.20;;;;;;5029903;28;20124;-56
2021/04/19 01:57:06;;;;;;;17.10;2.60;;;28.80;11.10;;;;;;5029702;28;20161;-60
2021/04/19 01:59:33;;;;;;;17.67;3.08;;;28.70;11.30;;;;;;5028850;28;20110;-59
2021/04/19 02:02:11;;;;;;;31.55;6.78;;;28.60;11.40;;;;;;5029772;28;20081;-58
2021/04/19 02:04:53;;;;;;;16.67;3.03;;;28.50;11.80;;;;;;5029888;28;20074;-58
2021/04/19 02:07:23;;;;;;;14.45;2.83;;;28.40;12.00;;;;;;5027567;28;20536;-58
2021/04/19 02:10:21;;;;;;;17.80;4.10;;;28.30;12.10;;;;;;5027357;28;20101;-54
2021/04/19 02:13:14;;;;;;;15.77;2.88;;;28.20;12.30;;;;;;5027445;28;20622;-60
2021/04/19 02:16:23;;;;;;;21.75;2.88;;;28.20;12.50;;;;;;5028423;28;20085;-60
2021/04/19 02:19:31;;;;;;;14.73;2.00;;;28.00;12.50;;;;;;5032785;28;20085;-62
2021/04/19 02:22:05;;;;;;;11.00;2.08;;;27.90;12.50;;;;;;5022762;28;20082;-63
2021/04/19 02:24:38;;;;;;;26.35;7.45;;;27.80;12.70;;;;;;5030945;28;20077;-62
2021/04/19 02:27:11;;;;;;;19.55;3.88;;;27.70;12.90;;;;;;5032501;28;20089;-62
2021/04/19 02:29:43;;;;;;;20.73;3.38;;;27.60;12.80;;;;;;5033155;28;20475;-61
2021/04/19 02:32:33;;;;;;;54.72;12.27;;;27.60;13.00;;;;;;5033426;28;20081;-59
2021/04/19 02:35:07;;;;;;;84.43;17.95;;;27.50;13.30;;;;;;5031666;28;20080;-62
2021/04/19 02:37:35;;;;;;;20.20;4.30;;;27.40;12.90;;;;;;5031626;28;20135;-58
2021/04/19 02:40:03;;;;;;;19.23;3.25;;;27.40;13.00;;;;;;5032958;28;20078;-60
2021/04/19 02:42:35;;;;;;;18.52;3.45;;;27.30;13.30;;;;;;5031404;28;20531;-59
2021/04/19 02:45:02;;;;;;;11.10;3.53;;;27.30;13.40;;;;;;5029402;28;20081;-59
2021/04/19 02:47:29;;;;;;;26.77;4.90;;;27.10;13.60;;;;;;5030898;28;20109;-63
2021/04/19 02:49:56;;;;;;;18.25;4.03;;;27.10;13.60;;;;;;5030687;28;20109;-58
2021/04/19 02:52:23;;;;;;;34.40;9.85;;;27.10;13.70;;;;;;5033805;28;20093;-56
2021/04/19 02:54:50;;;;;;;36.75;9.00;;;26.90;13.80;;;;;;5032612;28;20073;-60
2021/04/19 02:57:28;;;;;;;239.35;49.10;;;26.80;14.10;;;;;;5032426;28;20078;-60
2021/04/19 02:59:56;;;;;;;100.97;22.30;;;26.80;14.30;;;;;;5031366;28;20118;-58
2021/04/19 03:02:29;;;;;;;30.63;7.72;;;26.70;14.50;;;;;;5031994;28;20131;-54
2021/04/19 03:04:57;;;;;;;12.82;2.88;;;26.60;14.60;;;;;;5032824;28;20610;-58
2021/04/19 03:07:30;;;;;;;25.77;6.38;;;26.50;14.70;;;;;;5034150;28;20085;-60
2021/04/19 03:10:00;;;;;;;36.67;10.73;;;26.40;14.80;;;;;;5031714;28;20494;-57
2021/04/19 03:12:30;;;;;;;128.93;33.45;;;26.40;15.00;;;;;;5033432;28;20098;-57
2021/04/19 03:15:01;;;;;;;37.42;8.70;;;26.30;15.30;;;;;;5033000;28;20077;-58
2021/04/19 03:17:29;;;;;;;62.85;13.35;;;26.20;15.10;;;;;;5031643;28;20137;-59
2021/04/19 03:20:05;;;;;;;10.27;2.05;;;26.20;15.20;;;;;;5032842;28;20095;-58
2021/04/19 03:22:34;;;;;;;;;;;26.20;14.90;;;;;;5033547;28;20076;-62
2021/04/19 03:25:01;;;;;;;11.80;1.60;;;26.20;15.10;;;;;;5031810;28;19957;-61
2021/04/19 03:27:29;;;;;;;13.27;1.52;;;26.20;15.40;;;;;;5033375;28;20127;-60
2021/04/19 03:29:58;;;;;;;13.50;1.83;;;26.10;15.80;;;;;;5031662;28;20124;-59
2021/04/19 03:32:35;;;;;;;9.13;1.48;;;26.10;15.90;;;;;;5032157;28;20431;-59
2021/04/19 03:35:07;;;;;;;6.00;1.48;;;26.00;16.10;;;;;;5029888;28;20120;-59
2021/04/19 03:37:39;;;;;;;12.27;2.85;;;26.00;16.10;;;;;;5030720;28;20082;-59
2021/04/19 03:40:17;;;;;;;10.55;2.13;;;25.90;16.10;;;;;;5031966;28;20105;-61
2021/04/19 03:42:47;;;;;;;17.98;1.58;;;25.90;16.20;;;;;;5032775;28;20422;-59
2021/04/19 03:45:14;;;;;;;10.13;1.95;;;25.90;16.00;;;;;;5031570;28;20078;-58
2021/04/19 03:47:42;;;;;;;10.38;1.85;;;25.80;15.60;;;;;;5033524;28;20082;-59
2021/04/19 03:50:10;;;;;;;7.97;1.55;;;25.80;15.60;;;;;;5030871;28;20193;-59
2021/04/19 03:52:41;;;;;;;9.90;1.35;;;25.70;15.80;;;;;;5035351;28;20124;-58
2021/04/19 03:55:12;;;;;;;6.30;1.50;;;25.70;15.90;;;;;;5031706;28;20078;-61
2021/04/19 03:57:42;;;;;;;10.90;1.35;;;25.70;16.40;;;;;;5031249;28;20128;-59
2021/04/19 04:00:13;;;;;;;5.50;1.25;;;25.70;15.90;;;;;;5030930;28;20465;-61
2021/04/19 04:02:44;;;;;;;6.45;1.20;;;25.70;16.00;;;;;;5031888;28;20077;-61
2021/04/19 04:05:12;;;;;;;6.95;1.02;;;25.60;16.00;;;;;;5031834;28;20070;-60
2021/04/19 04:07:40;;;;;;;7.40;1.23;;;25.60;16.10;;;;;;5031953;28;20082;-57
2021/04/19 04:10:09;;;;;;;6.40;1.33;;;25.60;16.10;;;;;;5031141;28;20090;-57
2021/04/19 04:12:36;;;;;;;4.55;1.20;;;25.60;16.20;;;;;;5031711;28;20160;-63
2021/04/19 04:15:04;;;;;;;9.63;1.30;;;25.60;16.10;;;;;;5032228;28;20070;-59
2021/04/19 04:17:31;;;;;;;5.72;1.50;;;25.60;16.00;;;;;;5031441;28;20081;-59
2021/04/19 04:19:58;;;;;;;5.75;1.10;;;25.50;15.90;;;;;;5030985;28;20070;-60
2021/04/19 04:22:25;;;;;;;7.50;1.00;;;25.50;15.90;;;;;;5031390;28;20400;-61
2021/04/19 04:24:52;;;;;;;3.10;1.15;;;25.50;15.70;;;;;;5031945;28;20424;-60
2021/04/19 04:27:18;;;;;;;9.90;1.10;;;25.50;15.80;;;;;;5031976;28;20089;-62
2021/04/19 04:29:45;;;;;;;4.20;0.90;;;25.40;15.70;;;;;;5031089;28;21493;-60
2021/04/19 04:32:13;;;;;;;2.45;0.70;;;25.40;15.70;;;;;;5032459;28;20101;-60
2021/04/19 04:34:39;;;;;;;4.00;1.10;;;25.30;15.30;;;;;;5031484;28;20127;-61
2021/04/19 04:37:07;;;;;;;6.97;1.00;;;25.30;15.30;;;;;;5031343;28;20085;-59
2021/04/19 04:39:34;;;;;;;5.95;1.02;;;25.20;15.20;;;;;;5031592;28;20077;-63
2021/04/19 04:42:02;;;;;;;6.32;1.23;;;25.20;15.30;;;;;;5030776;28;20137;-61
2021/04/19 04:44:36;;;;;;;11.55;1.42;;;25.10;15.30;;;;;;5031269;28;20395;-59
2021/04/19 04:47:27;;;;;;;9.15;2.60;;;25.10;15.50;;;;;;5030407;28;20069;-60
2021/04/19 04:50:02;;;;;;;5.57;1.45;;;25.00;15.80;;;;;;5031379;28;20102;-58
2021/04/19 04:52:54;;;;;;;7.05;1.52;;;25.00;15.90;;;;;;5029464;28;20609;-57
2021/04/19 04:55:23;;;;;;;11.57;1.70;;;24.90;15.50;;;;;;5030546;28;20135;-59
2021/04/19 04:57:51;;;;;;;15.15;2.05;;;24.80;15.50;;;;;;5028749;28;20423;-60
2021/04/19 05:00:21;;;;;;;6.05;1.95;;;24.80;15.50;;;;;;5028387;28;20117;-58
2021/04/19 05:02:49;;;;;;;9.55;1.80;;;24.70;15.50;;;;;;5031148;28;20080;-59
2021/04/19 05:05:17;;;;;;;11.20;1.85;;;24.60;15.40;;;;;;5030189;28;20079;-61
2021/04/19 05:07:45;;;;;;;10.50;1.80;;;24.60;15.30;;;;;;5029059;28;20213;-59
2021/04/19 05:10:12;;;;;;;7.70;1.40;;;24.50;15.00;;;;;;5031465;28;20105;-61
2021/04/19 05:12:40;;;;;;;12.27;2.40;;;24.50;15.10;;;;;;5030795;28;20165;-59
2021/04/19 05:15:15;;;;;;;11.30;2.95;;;24.40;14.90;;;;;;5029714;28;20078;-58
2021/04/19 05:17:44;;;;;;;8.50;3.17;;;24.40;15.00;;;;;;5031116;28;20118;-62
2021/04/19 05:20:13;;;;;;;15.52;3.38;;;24.30;15.00;;;;;;5029359;28;20089;-60
2021/04/19 05:22:41;;;;;;;9.13;2.92;;;24.20;15.00;;;;;;5030555;28;20426;-61
2021/04/19 05:25:08;;;;;;;9.60;3.05;;;24.20;14.90;;;;;;5030543;28;20522;-59
2021/04/19 05:27:35;;;;;;;16.80;3.78;;;24.20;15.00;;;;;;5029878;28;20527;-58
2021/04/19 05:30:02;;;;;;;17.70;3.10;;;24.10;14.90;;;;;;5030737;28;20514;-60
2021/04/19 05:32:29;;;;;;;12.05;3.22;;;24.10;15.20;;;;;;5028719;28;20207;-60
2021/04/19 05:34:57;;;;;;;17.67;4.05;;;23.90;15.30;;;;;;5029047;28;20084;-60
2021/04/19 05:37:25;;;;;;;20.38;4.80;;;23.80;15.50;;;;;;5030669;28;20171;-59
2021/04/19 05:39:52;;;;;;;16.67;4.32;;;23.70;15.50;;;;;;5029709;28;20474;-58
2021/04/19 05:42:19;;;;;;;13.60;4.18;;;23.60;15.50;;;;;;5031112;28;20080;-60
2021/04/19 05:44:46;;;;;;;15.20;4.20;;;23.50;15.40;;;;;;5028591;28;20553;-61
2021/04/19 05:47:13;;;;;;;23.45;8.02;;;23.50;15.50;;;;;;5029216;28;20088;-58
2021/04/19 05:49:41;;;;;;;31.58;12.52;;;23.50;15.60;;;;;;5029694;28;20089;-59
2021/04/19 05:52:10;;;;;;;25.85;13.27;;;23.40;15.40;;;;;;5029305;28;20200;-59
2021/04/19 05:54:39;;;;;;;30.52;9.55;;;23.30;15.50;;;;;;5028353;28;20078;-58
2021/04/19 05:57:10;;;;;;;24.65;7.03;;;23.20;15.10;;;;;;5030052;28;20076;-59
2021/04/19 05:59:49;;;;;;;27.45;6.65;;;23.20;15.10;;;;;;5028428;28;20133;-59
2021/04/19 06:02:29;;;;;;;22.50;5.55;;;23.10;14.80;;;;;;5029882;28;20074;-58
2021/04/19 06:05:04;;;;;;;20.77;4.90;;;23.00;14.50;;;;;;5028498;28;20101;-60
2021/04/19 06:07:42;;;;;;;19.98;4.63;;;23.00;14.40;;;;;;5029851;28;20097;-60
2021/04/19 06:10:22;;;;;;;40.05;5.72;;;22.90;14.30;;;;;;5029865;28;20090;-58
2021/04/19 06:12:54;;;;;;;17.02;4.45;;;22.90;14.30;;;;;;5029656;28;20070;-59
2021/04/19 06:15:25;;;;;;;25.02;4.40;;;22.80;14.40;;;;;;5030369;28;20086;-60
2021/04/19 06:17:56;;;;;;;32.28;4.75;;;22.90;14.40;;;;;;5028095;28;20074;-59
2021/04/19 06:20:24;;;;;;;22.85;3.67;;;22.90;14.30;;;;;;5029910;28;20108;-61
2021/04/19 06:22:56;;;;;;;20.70;3.05;;;22.80;14.20;;;;;;5029627;28;20078;-58
2021/04/19 06:25:24;;;;;;;11.63;2.95;;;22.80;14.10;;;;;;5028719;28;20128;-60
2021/04/19 06:28:04;;;;;;;18.85;3.00;;;22.80;14.00;;;;;;5030710;28;20108;-60
2021/04/19 06:30:40;;;;;;;38.50;3.47;;;22.70;14.00;;;;;;5027695;28;20423;-59
2021/04/19 06:33:13;;;;;;;21.88;3.10;;;22.70;14.20;;;;;;5029486;28;20145;-59
2021/04/19 06:35:39;;;;;;;11.90;2.80;;;22.60;14.00;;;;;;5029326;28;20077;-58
2021/04/19 06:38:06;;;;;;;17.50;2.85;;;22.40;13.90;;;;;;5027679;28;20078;-62
2021/04/19 06:40:37;;;;;;;17.40;2.97;;;22.40;17.40;;;;;;5027495;28;20483;-62
2021/04/19 06:43:04;;;;;;;11.25;2.80;;;22.40;13.80;;;;;;5028125;28;20168;-59
2021/04/19 06:45:34;;;;;;;9.52;2.95;;;22.40;13.70;;;;;;5029463;28;20117;-60
2021/04/19 06:48:05;;;;;;;12.77;2.97;;;22.40;13.40;;;;;;5029428;28;20070;-59
2021/04/19 06:50:31;;;;;;;10.38;2.28;;;22.40;13.70;;;;;;5029615;28;20163;-61
2021/04/19 06:52:59;;;;;;;6.93;2.28;;;22.40;13.50;;;;;;5028431;28;20066;-58
2021/04/19 06:55:26;;;;;;;10.80;2.35;;;22.40;13.80;;;;;;5028329;28;20494;-58
2021/04/19 06:57:55;;;;;;;8.57;1.48;;;22.40;13.70;;;;;;5028182;28;20211;-60
2021/04/19 07:00:28;;;;;;;7.53;1.40;;;22.40;13.00;;;;;;5027529;28;20171;-60
2021/04/19 07:02:57;;;;;;;6.75;2.03;;;22.30;12.80;;;;;;5026370;28;20137;-58
2021/04/19 07:05:33;;;;;;;5.22;1.38;;;22.30;12.50;;;;;;5025720;28;20085;-60
2021/04/19 07:08:10;;;;;;;6.28;1.70;;;22.30;12.40;;;;;;5027927;28;20073;-58
2021/04/19 07:10:37;;;;;;;;;;;22.30;12.30;;;;;;5030867;28;20189;-61
2021/04/19 07:13:09;;;;;;;4.18;1.35;;;22.30;12.30;;;;;;5030775;28;20068;-60
2021/04/19 07:15:41;;;;;;;3.60;1.20;;;22.30;13.10;;;;;;5030362;28;20090;-59
2021/04/19 07:18:08;;;;;;;3.75;1.33;;;22.30;13.30;;;;;;5033656;28;20074;-60
2021/04/19 07:20:35;;;;;;;9.23;1.15;;;22.30;12.90;;;;;;5032126;28;20172;-59
2021/04/19 07:23:04;;;;;;;5.72;1.00;;;22.30;13.00;;;;;;5033461;28;20077;-61
2021/04/19 07:25:31;;;;;;;8.55;1.40;;;22.20;12.90;;;;;;5032458;28;20082;-60
2021/04/19 07:28:00;;;;;;;6.97;1.63;;;22.10;13.20;;;;;;5032833;28;20065;-60
2021/04/19 07:30:27;;;;;;;7.57;2.10;;;22.10;13.20;;;;;;5032553;28;20193;-58
2021/04/19 07:32:54;;;;;;;6.88;1.83;;;22.10;13.30;;;;;;5031220;28;20453;-60
2021/04/19 07:35:32;;;;;;;4.15;1.52;;;22.00;13.30;;;;;;5031223;28;20081;-57
2021/04/19 07:38:02;;;;;;;6.20;1.23;;;22.00;13.60;;;;;;5031169;28;20161;-59
2021/04/19 07:40:29;;;;;;;11.13;1.35;;;21.90;13.70;;;;;;5030717;28;20085;-60
2021/04/19 07:43:24;;;;;;;6.30;1.02;;;21.90;13.30;;;;;;5030294;28;20098;-59
2021/04/19 07:46:08;;;;;;;4.63;0.90;;;21.80;13.60;;;;;;5031527;28;20081;-59
2021/04/19 07:48:51;;;;;;;6.85;1.10;;;21.70;13.50;;;;;;5031616;28;20114;-59
2021/04/19 07:51:25;;;;;;;4.15;1.10;;;21.70;13.60;;;;;;5029940;28;20098;-59
2021/04/19 07:54:15;;;;;;;7.65;1.90;;;21.50;13.50;;;;;;5032415;28;20080;-59
2021/04/19 07:57:04;;;;;;;8.07;2.20;;;21.50;14.00;;;;;;5032627;28;20066;-56
2021/04/19 07:59:33;;;;;;;6.65;1.60;;;21.50;14.00;;;;;;5029374;28;20155;-59
2021/04/19 08:02:16;;;;;;;6.63;1.55;;;21.40;14.30;;;;;;5030542;28;20522;-58
2021/04/19 08:04:48;;;;;;;7.53;1.00;;;21.30;13.80;;;;;;5029235;28;20069;-59
2021/04/19 08:07:29;;;;;;;3.85;1.20;;;21.30;13.90;;;;;;5031933;28;20074;-60
2021/04/19 08:10:07;;;;;;;7.47;1.20;;;21.30;13.50;;;;;;5031925;28;20086;-58
2021/04/19 08:12:41;;;;;;;7.13;1.10;;;21.30;13.60;;;;;;5029987;28;20078;-56
2021/04/19 08:15:11;;;;;;;11.25;1.20;;;21.30;13.70;;;;;;5029939;28;20079;-56
2021/04/19 08:17:37;;;;;;;4.88;1.15;;;21.20;13.60;;;;;;5032400;28;20081;-57
2021/04/19 08:20:15;;;;;;;6.88;1.10;;;21.10;13.60;;;;;;5030692;28;20093;-57
2021/04/19 08:22:42;;;;;;;4.60;1.13;;;21.20;14.20;;;;;;5029250;28;20085;-60
2021/04/19 08:25:11;;;;;;;6.95;1.40;;;21.20;13.90;;;;;;5031278;28;21499;-56
2021/04/19 08:27:39;;;;;;;6.68;1.70;;;21.20;14.70;;;;;;5029591;28;20446;-56
2021/04/19 08:30:08;;;;;;;7.07;1.58;;;21.20;14.80;;;;;;5030798;28;20082;-59
2021/04/19 08:32:35;;;;;;;7.05;1.42;;;21.20;14.90;;;;;;5030915;28;20093;-59
2021/04/19 08:35:04;;;;;;;3.97;1.60;;;21.20;14.70;;;;;;5029934;28;20120;-58
2021/04/19 08:37:32;;;;;;;6.43;1.40;;;21.10;14.30;;;;;;5029937;28;20089;-56
2021/04/19 08:39:59;;;;;;;7.00;1.58;;;21.00;13.90;;;;;;5028409;28;20085;-59
2021/04/19 08:42:27;;;;;;;6.32;1.30;;;20.90;14.00;;;;;;5028903;28;20078;-59
2021/04/19 08:44:58;;;;;;;7.00;1.27;;;20.90;13.80;;;;;;5029295;28;20081;-60
2021/04/19 08:47:29;;;;;;;7.05;1.25;;;20.90;14.20;;;;;;5029634;28;20176;-56
2021/04/19 08:50:06;;;;;;;3.08;1.00;;;20.80;14.00;;;;;;5030053;28;20550;-58
2021/04/19 08:52:34;;;;;;;6.53;1.40;;;20.80;13.80;;;;;;5029766;28;20127;-59
2021/04/19 08:55:01;;;;;;;6.13;1.00;;;20.80;13.60;;;;;;5030429;28;20078;-59
2021/04/19 08:57:28;;;;;;;9.82;1.40;;;20.90;13.90;;;;;;5030555;28;20078;-58
2021/04/19 08:59:57;;;;;;;4.47;1.90;;;20.90;14.50;;;;;;5028839;28;20139;-59
2021/04/19 09:02:24;;;;;;;4.90;1.30;;;20.90;14.40;;;;;;5029628;28;21485;-58
2021/04/19 09:05:13;;;;;;;7.88;1.15;;;20.90;14.80;;;;;;5031371;28;20078;-60
2021/04/19 09:07:43;;;;;;;5.47;1.33;;;20.90;14.60;;;;;;5030098;28;20506;-56
2021/04/19 09:10:13;;;;;;;6.97;1.27;;;20.90;14.20;;;;;;5028353;28;20098;-57
2021/04/19 09:12:40;;;;;;;7.97;1.20;;;20.90;14.70;;;;;;5029846;28;20070;-58
2021/04/19 09:15:29;;;;;;;4.80;1.20;;;20.80;14.10;;;;;;5031021;28;20102;-60
2021/04/19 09:18:20;;;;;;;9.43;1.20;;;20.80;15.00;;;;;;5029599;28;20102;-60
2021/04/19 09:20:53;;;;;;;5.15;1.00;;;20.80;14.90;;;;;;5029749;28;20465;-61
2021/04/19 09:23:31;;;;;;;4.82;1.40;;;20.70;14.90;;;;;;5028494;28;20101;-58
2021/04/19 09:26:01;;;;;;;3.92;0.85;;;20.70;15.30;;;;;;5029274;28;20528;-58
2021/04/19 09:28:50;;;;;;;4.32;1.10;;;20.70;14.90;;;;;;5029221;28;20903;-58
2021/04/19 09:31:17;;;;;;;3.33;1.02;;;20.60;14.90;;;;;;5029450;28;20558;-59
2021/04/19 09:34:06;;;;;;;6.40;1.13;;;20.50;15.00;;;;;;5030636;28;20066;-58
2021/04/19 09:36:53;;;;;;;4.28;1.00;;;20.40;14.90;;;;;;5029221;28;20070;-54
2021/04/19 09:39:47;;;;;;;9.32;1.00;;;20.40;15.40;;;;;;5029051;28;20078;-59
2021/04/19 09:42:15;;;;;;;9.73;1.15;;;20.30;15.30;;;;;;5030362;28;20088;-57
2021/04/19 09:44:55;;;;;;;11.40;1.15;;;20.20;15.10;;;;;;5029665;28;20073;-60
2021/04/19 09:47:46;;;;;;;4.97;1.27;;;20.20;15.90;;;;;;5028590;28;20084;-60
2021/04/19 09:50:14;;;;;;;5.32;1.40;;;20.20;16.00;;;;;;5027640;28;20098;-58
2021/04/19 09:52:42;;;;;;;6.25;1.48;;;20.20;16.40;;;;;;5029026;28;20173;-58
2021/04/19 09:55:10;;;;;;;4.57;1.48;;;20.20;16.20;;;;;;5031431;28;20073;-59
2021/04/19 09:57:38;;;;;;;8.40;1.25;;;20.20;16.30;;;;;;5029863;28;20105;-59
2021/04/19 10:00:07;;;;;;;5.53;1.30;;;20.20;16.30;;;;;;5028447;28;20117;-58
2021/04/19 10:02:35;;;;;;;9.45;1.23;;;20.10;15.90;;;;;;5030331;28;20081;-57
2021/04/19 10:05:04;;;;;;;5.72;1.73;;;20.10;16.10;;;;;;5028987;28;20438;-55
2021/04/19 10:07:36;;;;;;;10.35;1.88;;;20.10;15.90;;;;;;5029093;28;20077;-60
2021/04/19 10:10:04;;;;;;;5.70;1.58;;;20.00;15.90;;;;;;5028245;28;20094;-56
2021/04/19 10:12:34;;;;;;;9.18;1.88;;;20.00;15.80;;;;;;5028906;28;20066;-58
2021/04/19 10:15:01;;;;;;;11.70;2.08;;;20.00;15.80;;;;;;5027120;28;20078;-58
2021/04/19 10:17:32;;;;;;;10.77;1.95;;;20.00;16.30;;;;;;5028376;28;20160;-57
2021/04/19 10:20:21;;;;;;;12.73;3.00;;;19.90;16.50;;;;;;5029247;28;20070;-59
2021/04/19 10:23:06;;;;;;;10.63;2.75;;;19.80;15.70;;;;;;5025737;28;20109;-60
2021/04/19 10:25:33;;;;;;;10.25;2.58;;;19.70;15.90;;;;;;5028939;28;20073;-60
2021/04/19 10:28:00;;;;;;;9.38;2.90;;;19.70;15.90;;;;;;5029016;28;20089;-58
2021/04/19 10:30:26;;;;;;;;;;;19.70;15.60;;;;;;5028561;28;20112;-59
2021/04/19 10:32:53;;;;;;;8.27;2.38;;;19.60;15.50;;;;;;5030315;28;20378;-59
2021/04/19 10:35:31;;;;;;;10.32;2.05;;;19.50;15.40;;;;;;5029979;28;20534;-61
2021/04/19 10:37:59;;;;;;;6.78;1.48;;;19.50;15.10;;;;;;5028720;28;20111;-59
2021/04/19 10:40:27;;;;;;;5.45;1.00;;;19.50;15.00;;;;;;5028342;28;20086;-58
2021/04/19 10:43:14;;;;;;;5.78;1.23;;;19.60;14.90;;;;;;5028563;28;20078;-59
2021/04/19 10:45:42;;;;;;;7.32;1.52;;;19.60;15.00;;;;;;5030392;28;20089;-56
2021/04/19 10:48:20;;;;;;;10.65;1.95;;;19.50;14.70;;;;;;5032375;28;20078;-60
2021/04/19 10:50:51;;;;;;;10.52;1.50;;;19.50;15.10;;;;;;5031695;28;20105;-59
2021/04/19 10:53:38;;;;;;;12.50;1.52;;;19.50;15.20;;;;;;5033112;28;20657;-59
2021/04/19 10:56:07;;;;;;;9.27;1.65;;;19.60;15.60;;;;;;5032129;28;20114;-61
2021/04/19 10:58:36;;;;;;;12.57;1.75;;;19.60;16.20;;;;;;5031288;28;20185;-61
2021/04/19 11:01:04;;;;;;;6.40;1.40;;;19.60;15.50;;;;;;5032337;28;20141;-60
2021/04/19 11:03:35;;;;;;;9.15;1.95;;;19.60;15.90;;;;;;5032893;28;20445;-58
2021/04/19 11:06:07;;;;;;;5.03;1.30;;;19.60;15.30;;;;;;5030783;28;20097;-59
2021/04/19 11:09:00;;;;;;;12.45;1.42;;;19.60;15.30;;;;;;5031487;28;20434;-60
2021/04/19 11:11:51;;;;;;;3.58;1.15;;;19.50;14.40;;;;;;5030815;28;20156;-60
2021/04/19 11:14:24;;;;;;;8.45;1.10;;;19.50;14.20;;;;;;5031570;28;20089;-59
2021/04/19 11:17:01;;;;;;;9.70;1.30;;;19.60;14.60;;;;;;5030981;28;20082;-59
2021/04/19 11:19:36;;;;;;;5.90;1.20;;;19.60;14.50;;;;;;5031811;28;20109;-58
2021/04/19 11:22:29;;;;;;;7.03;1.10;;;19.50;14.40;;;;;;5032682;28;20069;-61
2021/04/19 11:25:10;;;;;;;10.43;1.23;;;19.50;15.10;;;;;;5030247;28;20066;-59
2021/04/19 11:27:37;;;;;;;3.95;1.48;;;19.60;15.50;;;;;;5030530;28;20078;-58
2021/04/19 11:30:17;;;;;;;5.55;1.38;;;19.50;14.90;;;;;;5031402;28;20168;-60
2021/04/19 11:32:44;;;;;;;7.65;1.05;;;19.50;15.20;;;;;;5032128;28;20438;-59
2021/04/19 11:35:24;;;;;;;8.02;1.10;;;19.50;15.40;;;;;;5031818;28;20074;-60
2021/04/19 11:37:59;;;;;;;8.05;2.05;;;19.40;15.40;;;;;;5031479;28;20066;-60
2021/04/19 11:40:28;;;;;;;5.75;1.30;;;19.40;15.80;;;;;;5030942;28;20066;-60
2021/04/19 11:42:55;;;;;;;6.30;1.35;;;19.40;15.90;;;;;;5031862;28;20117;-56
2021/04/19 11:45:23;;;;;;;8.93;1.40;;;19.30;16.90;;;;;;5031033;28;20077;-59
2021/04/19 11:47:50;;;;;;;5.80;1.60;;;19.20;16.60;;;;;;5032613;28;20070;-60
2021/04/19 11:50:17;;;;;;;5.35;1.70;;;19.10;16.30;;;;;;5031202;28;20109;-59
2021/04/19 11:52:51;;;;;;;8.48;1.50;;;19.00;16.00;;;;;;5032653;28;20511;-60
2021/04/19 11:55:18;;;;;;;7.68;2.00;;;19.00;16.20;;;;;;5030300;28;20449;-58
2021/04/19 11:57:45;;;;;;;7.18;1.98;;;19.00;15.90;;;;;;5031035;28;20499;-59
2021/04/19 12:00:12;;;;;;;;;;;19.00;15.70;;;;;;5033234;28;20191;-58
2021/04/19 12:02:38;;;;;;;18.88;2.30;;;19.00;15.60;;;;;;5031224;28;19957;-58
2021/04/19 12:05:07;;;;;;;9.02;2.05;;;18.90;15.00;;;;;;5030714;28;20169;-60
2021/04/19 12:07:35;;;;;;;11.48;2.75;;;18.90;15.00;;;;;;5031330;28;20106;-57
2021/04/19 12:10:02;;;;;;;11.10;2.30;;;18.90;14.90;;;;;;5031227;28;20439;-59
2021/04/19 12:12:29;;;;;;;10.57;2.67;;;18.90;14.70;;;;;;5031350;28;20215;-59
2021/04/19 12:14:55;;;;;;;;;;;19.00;15.00;;;;;;5031758;28;20077;-58
2021/04/19 12:17:21;;;;;;;12.88;2.72;;;19.00;14.90;;;;;;5032394;28;19962;-57
2021/04/19 12:19:47;;;;;;;;;;;19.00;15.20;;;;;;5031439;28;21341;-58
2021/04/19 12:22:14;;;;;;;16.17;2.95;;;18.90;15.10;;;;;;5030403;28;20529;-56
2021/04/19 12:24:40;;;;;;;;;;;18.90;15.20;;;;;;5030112;28;20124;-60
2021/04/19 12:27:06;;;;;;;9.40;2.58;;;18.90;15.20;;;;;;5031376;28;19966;-55
2021/04/19 12:29:33;;;;;;;;;;;19.00;16.00;;;;;;5032248;28;20581;-56
2021/04/19 12:32:00;;;;;;;8.90;2.58;;;19.00;15.80;;;;;;5030678;28;19961;-57
2021/04/19 12:34:26;;;;;;;14.75;2.88;;;18.90;15.40;;;;;;5030690;28;20078;-59
2021/04/19 12:36:54;;;;;;;;;;;18.90;15.20;;;;;;5031200;28;20544;-59
2021/04/19 12:39:21;;;;;;;;;;;18.90;15.40;;;;;;5031019;28;20100;-57
2021/04/19 12:41:48;;;;;;;12.15;2.55;;;19.00;16.30;;;;;;5031506;28;20469;-58
2021/04/19 12:44:15;;;;;;;12.57;2.30;;;19.00;16.40;;;;;;5030827;28;20101;-57
2021/04/19 12:46:43;;;;;;;11.60;2.00;;;19.00;16.90;;;;;;5030359;28;20549;-59
2021/04/19 12:49:10;;;;;;;6.13;1.60;;;18.90;16.90;;;;;;5030287;28;20160;-58
2021/04/19 12:51:36;;;;;;;8.90;1.73;;;18.90;16.80;;;;;;5031249;28;20700;-59
2021/04/19 12:54:03;;;;;;;9.88;1.60;;;18.90;17.10;;;;;;5030827;28;20085;-60
2021/04/19 12:56:29;;;;;;;12.02;1.63;;;18.90;16.80;;;;;;5030135;28;20089;-58
2021/04/19 12:58:56;;;;;;;6.53;1.60;;;18.90;16.40;;;;;;5030581;28;20084;-60
2021/04/19 13:01:22;;;;;;;7.43;1.40;;;18.90;16.40;;;;;;5029833;28;20275;-58
2021/04/19 13:03:49;;;;;;;;;;;18.90;16.00;;;;;;5030653;28;20096;-58
2021/04/19 13:06:15;;;;;;;13.32;2.05;;;18.90;16.30;;;;;;5030087;28;19964;-58